Time;durP1;ratioP1;P1;durP2;ratioP2;P2;SDS_P1;SDS_P2;PMS_P1;PMS_P2;Temp;Humidity;BMP_temperature;BMP_pressure;BME280_temperature;BME280_humidity;BME280_pressure;Samples;Min_cycle;Max_cycle;Signal;HPM_P1;HPM_P2
2023/05/22 00:00:43;;;;;;;;;;;;;;;19.08;68.15;98338.56;2086508;28;19928;-49
2023/05/22 00:01:45;;;;;;;;;;;;;;;19.09;68.11;98337.56;2088913;28;19928;-51
2023/05/22 00:02:47;;;;;;;;;;;;;;;19.06;68.22;98329.91;2084451;28;19924;-50
2023/05/22 00:03:49;;;;;;;;;;;;;;;19.08;68.33;98341.25;2088080;28;21328;-47
2023/05/22 00:04:50;;;;;;;;;;;;;;;19.08;68.39;98338.56;2086743;28;20006;-52
2023/05/22 00:05:52;;;;;;;;;;;;;;;19.07;68.48;98337.75;2084998;28;19927;-52
2023/05/22 00:06:53;;;;;;;;;;;;;;;19.04;68.36;98340.88;2085128;28;20402;-48
2023/05/22 00:07:54;;;;;;;;;;;;;;;19.05;68.44;98345.19;2088145;28;19928;-47
2023/05/22 00:08:55;;;;;;;;;;;;;;;19.08;68.33;98343.94;2088221;28;20368;-51
2023/05/22 00:09:56;;;;;;;;;;;;;;;19.06;68.38;98340.69;2087078;28;20019;-47
2023/05/22 00:10:57;;;;;;;;;;;;;;;19.08;68.23;98346.63;2085726;28;19920;-50
2023/05/22 00:11:58;;;;;;;;;;;;;;;19.07;68.18;98337.75;2087150;28;19977;-48
2023/05/22 00:12:59;;;;;;;;;;;;;;;19.09;68.34;98342.94;2088057;28;19928;-47
2023/05/22 00:14:01;;;;;;;;;;;;;;;19.09;68.19;98342.94;2087876;28;19932;-47
2023/05/22 00:15:03;;;;;;;;;;;;;;;19.08;68.41;98342.09;2087497;28;19924;-48
2023/05/22 00:16:04;;;;;;;;;;;;;;;19.08;68.39;98335.88;2087584;28;19925;-51
2023/05/22 00:17:05;;;;;;;;;;;;;;;19.08;68.15;98341.25;2087714;28;19981;-48
2023/05/22 00:18:07;;;;;;;;;;;;;;;19.08;68.12;98347.47;2084994;28;19951;-50
2023/05/22 00:19:15;;;;;;;;;;;;;;;19.10;67.92;98340.00;2085352;28;19971;-47
2023/05/22 00:20:15;;;;;;;;;;;;;;;19.09;68.21;98340.25;2090661;28;19920;-49
2023/05/22 00:21:17;;;;;;;;;;;;;;;19.08;68.10;98342.09;2086536;28;20972;-49
2023/05/22 00:22:18;;;;;;;;;;;;;;;19.09;68.18;98335.69;2086090;28;19925;-52
2023/05/22 00:23:20;;;;;;;;;;;;;;;19.07;67.92;98339.63;2086160;28;20405;-49
2023/05/22 00:24:21;;;;;;;;;;;;;;;19.07;68.27;98340.44;2086910;28;19928;-51
2023/05/22 00:25:22;;;;;;;;;;;;;;;19.07;68.30;98339.63;2087657;28;19930;-50
2023/05/22 00:26:23;;;;;;;;;;;;;;;19.07;68.02;98336.94;2086832;28;19921;-49
2023/05/22 00:27:24;;;;;;;;;;;;;;;19.09;68.02;98338.38;2088870;28;19981;-49
2023/05/22 00:28:25;;;;;;;;;;;;;;;19.08;68.11;98336.72;2088746;28;19928;-52
2023/05/22 00:29:28;;;;;;;;;;;;;;;19.09;67.91;98334.88;2088442;28;19925;-52
2023/05/22 00:30:28;;;;;;;;;;;;;;;19.08;68.29;98333.19;2087651;28;19928;-55
2023/05/22 00:31:30;;;;;;;;;;;;;;;19.08;68.03;98331.31;2084875;28;19921;-51
2023/05/22 00:32:30;;;;;;;;;;;;;;;19.06;67.91;98332.59;2089666;28;19924;-51
2023/05/22 00:33:32;;;;;;;;;;;;;;;19.05;68.31;98334.44;2088553;28;19989;-51
2023/05/22 00:34:33;;;;;;;;;;;;;;;19.06;68.19;98338.81;2089270;28;19921;-47
2023/05/22 00:35:34;;;;;;;;;;;;;;;19.08;68.25;98330.50;2088376;28;19926;-52
2023/05/22 00:36:35;;;;;;;;;;;;;;;19.08;68.21;98331.31;2088877;28;19978;-50
2023/05/22 00:37:36;;;;;;;;;;;;;;;19.07;68.04;98334.25;2088482;28;19936;-52
2023/05/22 00:38:37;;;;;;;;;;;;;;;19.06;68.17;98327.22;2088032;28;19977;-48
2023/05/22 00:39:38;;;;;;;;;;;;;;;19.08;67.97;98330.50;2085108;28;19936;-46
2023/05/22 00:40:39;;;;;;;;;;;;;;;19.07;68.05;98323.50;2090572;28;19928;-49
2023/05/22 00:41:40;;;;;;;;;;;;;;;19.05;68.21;98325.56;2087148;28;20016;-48
2023/05/22 00:42:42;;;;;;;;;;;;;;;19.07;68.28;98326.19;2087211;28;19974;-50
2023/05/22 00:43:44;;;;;;;;;;;;;;;19.07;68.04;98329.69;2086081;28;19932;-50
2023/05/22 00:44:47;;;;;;;;;;;;;;;19.09;67.85;98329.50;2088811;28;20018;-50
2023/05/22 00:45:48;;;;;;;;;;;;;;;19.08;67.92;98330.50;2090463;28;20021;-50
2023/05/22 00:46:49;;;;;;;;;;;;;;;19.07;68.01;98328.88;2088115;28;20720;-52
2023/05/22 00:47:51;;;;;;;;;;;;;;;19.07;68.22;98323.50;2088161;28;19936;-49
2023/05/22 00:48:51;;;;;;;;;;;;;;;19.08;68.03;98330.50;2089622;28;19924;-47
2023/05/22 00:49:53;;;;;;;;;;;;;;;19.05;68.38;98330.94;2088521;28;20017;-50
2023/05/22 00:50:54;;;;;;;;;;;;;;;19.07;68.04;98326.19;2088799;28;20338;-49
2023/05/22 00:51:55;;;;;;;;;;;;;;;19.07;68.27;98328.88;2087376;28;19928;-50
2023/05/22 00:52:56;;;;;;;;;;;;;;;19.04;67.91;98324.75;2089315;28;19921;-50
2023/05/22 00:53:57;;;;;;;;;;;;;;;19.05;68.16;98325.56;2088345;28;19979;-54
2023/05/22 00:54:58;;;;;;;;;;;;;;;19.06;67.93;98320.00;2087349;28;19925;-50
2023/05/22 00:56:00;;;;;;;;;;;;;;;19.06;68.06;98319.16;2086977;28;19970;-49
2023/05/22 00:57:01;;;;;;;;;;;;;;;19.07;67.80;98318.94;2085386;28;19920;-48
2023/05/22 00:58:06;;;;;;;;;;;;;;;19.07;68.17;98320.81;2089430;28;20372;-49
2023/05/22 00:59:06;;;;;;;;;;;;;;;19.07;68.19;98326.19;2086707;28;19924;-50
2023/05/22 01:00:10;;;;;;;;;;;;;;;19.06;68.12;98324.53;2084632;28;19925;-48
2023/05/22 01:01:11;;;;;;;;;;;;;;;19.05;68.19;98318.31;2082204;28;19932;-48
2023/05/22 01:02:15;;;;;;;;;;;;;;;19.05;67.91;98320.19;2084518;28;20399;-50
2023/05/22 01:03:16;;;;;;;;;;;;;;;19.07;67.89;98323.50;2085600;28;19935;-52
2023/05/22 01:04:18;;;;;;;;;;;;;;;19.05;67.75;98321.00;2087107;28;19947;-48
2023/05/22 01:05:18;;;;;;;;;;;;;;;19.05;68.06;98320.19;2086343;28;19963;-49
2023/05/22 01:06:21;;;;;;;;;;;;;;;19.02;68.16;98326.00;2086682;28;20306;-48
2023/05/22 01:07:22;;;;;;;;;;;;;;;19.02;67.85;98321.44;2085548;28;19925;-48
2023/05/22 01:08:24;;;;;;;;;;;;;;;19.05;68.33;98325.56;2085616;28;20391;-50
2023/05/22 01:09:24;;;;;;;;;;;;;;;19.04;68.04;98332.00;2084885;28;19924;-51
2023/05/22 01:10:26;;;;;;;;;;;;;;;19.04;68.04;98324.75;2083945;28;19925;-52
2023/05/22 01:11:31;;;;;;;;;;;;;;;19.05;68.00;98326.38;2082959;28;19925;-48
2023/05/22 01:12:38;;;;;;;;;;;;;;;19.06;67.85;98322.69;2085077;28;19924;-51
2023/05/22 01:13:42;;;;;;;;;;;;;;;19.05;68.19;98333.63;2084719;28;20363;-49
2023/05/22 01:14:46;;;;;;;;;;;;;;;19.04;67.99;98326.63;2085952;28;20329;-49
2023/05/22 01:15:51;;;;;;;;;;;;;;;19.04;67.73;98335.50;2082244;28;19950;-48
2023/05/22 01:16:55;;;;;;;;;;;;;;;19.07;67.83;98334.25;2083385;28;19935;-48
2023/05/22 01:18:03;;;;;;;;;;;;;;;19.05;67.99;98333.63;2074593;28;19928;-49
2023/05/22 01:19:14;;;;;;;;;;;;;;;19.04;67.94;98334.69;2085117;28;19928;-51
2023/05/22 01:20:21;;;;;;;;;;;;;;;19.04;67.86;98330.13;2088048;28;20761;-48
2023/05/22 01:21:25;;;;;;;;;;;;;;;19.04;67.98;98330.13;2084643;28;20495;-49
2023/05/22 01:22:31;;;;;;;;;;;;;;;19.02;67.88;98324.13;2076454;28;20481;-50
2023/05/22 01:23:47;;;;;;;;;;;;;;;19.01;68.19;98329.72;2078358;28;20054;-47
2023/05/22 01:24:59;;;;;;;;;;;;;;;19.02;68.13;98326.81;2081131;28;19931;-49
2023/05/22 01:26:11;;;;;;;;;;;;;;;19.04;68.19;98326.63;2079896;28;19924;-50
2023/05/22 01:27:36;;;;;;;;;;;;;;;19.02;67.98;98324.13;2086724;28;19987;-48
2023/05/22 01:28:47;;;;;;;;;;;;;;;19.03;67.84;98322.25;2084337;28;19974;-49
2023/05/22 01:29:57;;;;;;;;;;;;;;;19.02;68.27;98318.75;2086308;28;19963;-51
2023/05/22 01:31:01;;;;;;;;;;;;;;;19.04;67.87;98313.19;2086901;28;19924;-50
2023/05/22 01:32:03;;;;;;;;;;;;;;;19.05;68.03;98320.19;2083837;28;19930;-47
2023/05/22 01:33:05;;;;;;;;;;;;;;;19.04;67.81;98310.50;2085504;28;19928;-50
2023/05/22 01:34:10;;;;;;;;;;;;;;;19.03;67.85;98311.50;2085589;28;20043;-48
2023/05/22 01:35:11;;;;;;;;;;;;;;;19.02;67.88;98312.56;2083806;28;19924;-48
2023/05/22 01:36:14;;;;;;;;;;;;;;;19.01;68.13;98311.75;2085773;28;21590;-48
2023/05/22 01:37:16;;;;;;;;;;;;;;;19.03;67.80;98306.97;2085756;28;19985;-49
2023/05/22 01:38:18;;;;;;;;;;;;;;;19.02;68.09;98316.06;2085437;28;19928;-49
2023/05/22 01:39:18;;;;;;;;;;;;;;;19.03;67.96;98311.50;2090313;28;19920;-50
2023/05/22 01:40:20;;;;;;;;;;;;;;;19.01;67.80;98319.81;2088767;28;19932;-49
2023/05/22 01:41:21;;;;;;;;;;;;;;;19.02;67.92;98307.19;2085012;28;19924;-49
2023/05/22 01:42:22;;;;;;;;;;;;;;;19.03;68.05;98316.88;2084668;28;20374;-49
2023/05/22 01:43:23;;;;;;;;;;;;;;;19.04;67.98;98321.25;2086641;28;20003;-50
2023/05/22 01:44:25;;;;;;;;;;;;;;;19.03;67.74;98323.09;2085810;28;20616;-51
2023/05/22 01:45:25;;;;;;;;;;;;;;;19.03;67.96;98322.25;2086780;28;19921;-48
2023/05/22 01:46:29;;;;;;;;;;;;;;;19.01;68.05;98321.66;2086237;28;20035;-48
2023/05/22 01:47:29;;;;;;;;;;;;;;;19.01;68.17;98319.81;2086067;28;19928;-49
2023/05/22 01:48:30;;;;;;;;;;;;;;;19.01;68.06;98318.97;2085498;28;19928;-48
2023/05/22 01:49:31;;;;;;;;;;;;;;;19.01;67.73;98319.81;2087800;28;19924;-48
2023/05/22 01:50:33;;;;;;;;;;;;;;;19.01;68.04;98324.34;2087656;28;19962;-48
2023/05/22 01:51:40;;;;;;;;;;;;;;;19.02;67.75;98323.31;2087128;28;20425;-49
2023/05/22 01:52:46;;;;;;;;;;;;;;;19.02;67.88;98328.69;2087226;28;19928;-48
2023/05/22 01:53:50;;;;;;;;;;;;;;;19.01;67.77;98318.97;2087721;28;19940;-51
2023/05/22 01:54:57;;;;;;;;;;;;;;;19.02;67.84;98323.31;2086924;28;20307;-50
2023/05/22 01:56:00;;;;;;;;;;;;;;;19.00;67.92;98326.22;2087630;28;20465;-49
2023/05/22 01:57:07;;;;;;;;;;;;;;;19.00;67.98;98318.16;2086828;28;20072;-49
2023/05/22 01:58:12;;;;;;;;;;;;;;;18.98;67.84;98325.59;2088919;28;19981;-49
2023/05/22 01:59:17;;;;;;;;;;;;;;;18.98;68.04;98329.13;2085926;28;20002;-48
2023/05/22 02:00:20;;;;;;;;;;;;;;;18.99;67.93;98321.88;2088510;28;20015;-49
2023/05/22 02:01:22;;;;;;;;;;;;;;;18.99;67.87;98329.94;2086652;28;19927;-49
2023/05/22 02:02:25;;;;;;;;;;;;;;;19.01;67.99;98330.56;2087846;28;19929;-50
2023/05/22 02:03:29;;;;;;;;;;;;;;;19.01;67.79;98327.88;2085518;28;19947;-50
2023/05/22 02:04:31;;;;;;;;;;;;;;;19.01;67.77;98324.34;2087424;28;19928;-50
2023/05/22 02:05:34;;;;;;;;;;;;;;;19.01;67.74;98324.34;2087083;28;19935;-49
2023/05/22 02:06:36;;;;;;;;;;;;;;;18.99;67.81;98327.25;2088145;28;19931;-51
2023/05/22 02:07:38;;;;;;;;;;;;;;;18.97;68.07;98323.94;2086946;28;20492;-49
2023/05/22 02:08:40;;;;;;;;;;;;;;;18.99;68.08;98324.56;2085389;28;19920;-50
2023/05/22 02:09:42;;;;;;;;;;;;;;;18.96;67.94;98323.13;2087078;28;19951;-50
2023/05/22 02:10:43;;;;;;;;;;;;;;;18.97;67.83;98324.78;2087724;28;19954;-51
2023/05/22 02:11:46;;;;;;;;;;;;;;;18.98;67.79;98317.53;2086912;28;20529;-49
2023/05/22 02:12:47;;;;;;;;;;;;;;;18.97;67.73;98324.78;2088112;28;19936;-48
2023/05/22 02:13:49;;;;;;;;;;;;;;;18.97;67.65;98315.88;2088079;28;20362;-50
2023/05/22 02:14:50;;;;;;;;;;;;;;;18.97;67.75;98322.09;2089391;28;20339;-49
2023/05/22 02:15:51;;;;;;;;;;;;;;;18.98;67.97;98321.06;2087569;28;20448;-50
2023/05/22 02:16:52;;;;;;;;;;;;;;;18.96;67.97;98312.38;2088284;28;19943;-48
2023/05/22 02:17:55;;;;;;;;;;;;;;;18.96;67.84;98307.00;2086257;28;20646;-51
2023/05/22 02:18:57;;;;;;;;;;;;;;;18.95;68.04;98305.34;2090017;28;19923;-51
2023/05/22 02:19:59;;;;;;;;;;;;;;;18.96;67.65;98301.63;2086963;28;20290;-53
2023/05/22 02:20:59;;;;;;;;;;;;;;;18.96;68.08;98301.63;2085193;28;19920;-51
2023/05/22 02:22:01;;;;;;;;;;;;;;;18.96;67.96;98301.63;2085159;28;19929;-49
2023/05/22 02:23:01;;;;;;;;;;;;;;;18.96;67.98;98298.94;2087668;28;19932;-49
2023/05/22 02:24:03;;;;;;;;;;;;;;;18.96;67.66;98290.88;2088158;28;19936;-51
2023/05/22 02:25:07;;;;;;;;;;;;;;;18.94;67.98;98298.34;2086670;28;19953;-49
2023/05/22 02:26:09;;;;;;;;;;;;;;;18.95;67.82;98289.22;2082999;28;20583;-49
2023/05/22 02:27:10;;;;;;;;;;;;;;;18.94;67.80;98292.13;2087843;28;19928;-51
2023/05/22 02:28:12;;;;;;;;;;;;;;;18.96;68.01;98290.06;2079360;28;21113;-48
2023/05/22 02:29:12;;;;;;;;;;;;;;;18.97;67.82;98291.69;2081608;28;19969;-49
2023/05/22 02:30:14;;;;;;;;;;;;;;;18.96;67.79;98290.88;2084483;28;19928;-51
2023/05/22 02:31:16;;;;;;;;;;;;;;;18.99;67.92;98292.31;2087089;28;20375;-50
2023/05/22 02:32:18;;;;;;;;;;;;;;;18.96;67.68;98285.50;2087893;28;19927;-48
2023/05/22 02:33:20;;;;;;;;;;;;;;;18.97;67.98;98294.38;2086230;28;19977;-48
2023/05/22 02:34:21;;;;;;;;;;;;;;;18.97;67.91;98287.16;2087004;28;19928;-51
2023/05/22 02:35:22;;;;;;;;;;;;;;;18.96;67.55;98290.88;2088118;28;19920;-48
2023/05/22 02:36:25;;;;;;;;;;;;;;;18.94;68.02;98286.75;2086147;28;20366;-52
2023/05/22 02:37:25;;;;;;;;;;;;;;;18.95;67.78;98285.72;2085626;28;19921;-51
2023/05/22 02:38:26;;;;;;;;;;;;;;;18.97;67.67;98291.69;2087827;28;19973;-50
2023/05/22 02:39:27;;;;;;;;;;;;;;;18.95;67.84;98288.41;2084911;28;19920;-48
2023/05/22 02:40:28;;;;;;;;;;;;;;;18.93;67.87;98290.47;2085404;28;20340;-49
2023/05/22 02:41:29;;;;;;;;;;;;;;;18.94;67.79;98290.28;2086439;28;19921;-49
2023/05/22 02:42:30;;;;;;;;;;;;;;;18.94;67.78;98292.97;2087519;28;20460;-48
2023/05/22 02:43:31;;;;;;;;;;;;;;;18.95;68.03;98289.22;2085309;28;19929;-49
2023/05/22 02:44:32;;;;;;;;;;;;;;;18.93;67.88;98290.47;2089529;28;19924;-51
2023/05/22 02:45:33;;;;;;;;;;;;;;;18.91;67.88;98290.69;2086643;28;19970;-48
2023/05/22 02:46:34;;;;;;;;;;;;;;;18.91;67.82;98288.00;2087457;28;19927;-50
2023/05/22 02:47:35;;;;;;;;;;;;;;;18.92;67.85;98291.53;2085546;28;19928;-51
2023/05/22 02:48:38;;;;;;;;;;;;;;;18.93;67.72;98293.16;2087529;28;19921;-51
2023/05/22 02:49:39;;;;;;;;;;;;;;;18.92;67.83;98300.41;2084792;28;19925;-49
2023/05/22 02:50:43;;;;;;;;;;;;;;;18.92;67.74;98295.03;2086253;28;19932;-54
2023/05/22 02:51:46;;;;;;;;;;;;;;;18.90;67.82;98294.41;2078054;28;19932;-49
2023/05/22 02:52:48;;;;;;;;;;;;;;;18.91;68.02;98296.06;2084842;28;19920;-49
2023/05/22 02:53:48;;;;;;;;;;;;;;;18.91;67.92;98301.44;2085077;28;19936;-50
2023/05/22 02:54:50;;;;;;;;;;;;;;;18.94;68.11;98297.50;2088652;28;20564;-49
2023/05/22 02:55:51;;;;;;;;;;;;;;;18.93;67.68;98295.84;2084084;28;20690;-48
2023/05/22 02:56:53;;;;;;;;;;;;;;;18.92;67.78;98305.78;2087335;28;19928;-48
2023/05/22 02:57:53;;;;;;;;;;;;;;;18.89;67.93;98295.47;2085280;28;19929;-49
2023/05/22 02:58:54;;;;;;;;;;;;;;;18.92;67.80;98291.53;2084725;28;20821;-49
2023/05/22 02:59:56;;;;;;;;;;;;;;;18.92;67.86;98292.34;2088136;28;19924;-48
2023/05/22 03:00:58;;;;;;;;;;;;;;;18.92;67.97;98295.03;2083972;28;19935;-51
2023/05/22 03:01:58;;;;;;;;;;;;;;;18.92;67.81;98294.22;2085797;28;20294;-51
2023/05/22 03:03:00;;;;;;;;;;;;;;;18.93;67.85;98298.53;2085864;28;19963;-48
2023/05/22 03:04:02;;;;;;;;;;;;;;;18.93;68.06;98299.38;2088999;28;19935;-49
2023/05/22 03:05:03;;;;;;;;;;;;;;;18.92;67.93;98300.41;2084827;28;20015;-50
2023/05/22 03:06:05;;;;;;;;;;;;;;;18.90;68.06;98296.28;2085860;28;19950;-48
2023/05/22 03:07:06;;;;;;;;;;;;;;;18.88;67.77;98301.84;2087246;28;20002;-50
2023/05/22 03:08:07;;;;;;;;;;;;;;;18.91;67.68;98298.75;2088574;28;19924;-49
2023/05/22 03:09:09;;;;;;;;;;;;;;;18.90;67.83;98296.28;2084398;28;20011;-48
2023/05/22 03:10:09;;;;;;;;;;;;;;;18.88;67.77;98291.09;2090443;28;19932;-51
2023/05/22 03:11:11;;;;;;;;;;;;;;;18.87;67.84;98302.91;2087273;28;20483;-49
2023/05/22 03:12:11;;;;;;;;;;;;;;;18.88;67.84;98298.34;2086660;28;19929;-51
2023/05/22 03:13:13;;;;;;;;;;;;;;;18.89;67.80;98294.66;2086184;28;19933;-50
2023/05/22 03:14:13;;;;;;;;;;;;;;;18.88;68.01;98293.78;2085968;28;19985;-51
2023/05/22 03:15:15;;;;;;;;;;;;;;;18.89;67.85;98294.66;2083975;28;20005;-48
2023/05/22 03:16:15;;;;;;;;;;;;;;;18.88;67.64;98299.16;2086400;28;20045;-52
2023/05/22 03:17:17;;;;;;;;;;;;;;;18.88;68.03;98293.78;2087420;28;19975;-48
2023/05/22 03:18:17;;;;;;;;;;;;;;;18.86;67.81;98293.22;2086968;28;19929;-48
2023/05/22 03:19:20;;;;;;;;;;;;;;;18.87;67.78;98292.16;2085312;28;19929;-51
2023/05/22 03:20:20;;;;;;;;;;;;;;;18.87;67.92;98292.16;2084596;28;19925;-51
2023/05/22 03:21:22;;;;;;;;;;;;;;;18.88;67.85;98288.44;2087388;28;19953;-49
2023/05/22 03:22:22;;;;;;;;;;;;;;;18.89;68.13;98294.66;2083740;28;19952;-49
2023/05/22 03:23:24;;;;;;;;;;;;;;;18.88;67.60;98288.44;2083515;28;19928;-50
2023/05/22 03:24:25;;;;;;;;;;;;;;;18.88;67.83;98293.78;2086647;28;19928;-51
2023/05/22 03:25:27;;;;;;;;;;;;;;;18.86;67.84;98284.31;2085445;28;19924;-51
2023/05/22 03:26:27;;;;;;;;;;;;;;;18.85;67.90;98291.53;2082820;28;19928;-50
2023/05/22 03:27:29;;;;;;;;;;;;;;;18.86;67.82;98281.59;2087827;28;19999;-49
2023/05/22 03:28:29;;;;;;;;;;;;;;;18.85;68.04;98288.03;2084945;28;19932;-49
2023/05/22 03:29:31;;;;;;;;;;;;;;;18.86;67.82;98286.97;2082381;28;19940;-50
2023/05/22 03:30:31;;;;;;;;;;;;;;;18.85;67.80;98296.91;2078655;28;20264;-50
2023/05/22 03:31:33;;;;;;;;;;;;;;;18.86;67.85;98282.47;2081017;28;19981;-49
2023/05/22 03:32:36;;;;;;;;;;;;;;;18.86;67.88;98293.22;2083494;28;19949;-49
2023/05/22 03:33:37;;;;;;;;;;;;;;;18.87;67.75;98289.47;2087550;28;19920;-50
2023/05/22 03:34:39;;;;;;;;;;;;;;;18.85;67.88;98288.84;2074572;28;20536;-52
2023/05/22 03:35:43;;;;;;;;;;;;;;;18.89;67.63;98284.72;2082555;28;20035;-51
2023/05/22 03:36:45;;;;;;;;;;;;;;;18.88;67.91;98288.44;2085472;28;19932;-49
2023/05/22 03:37:45;;;;;;;;;;;;;;;18.87;67.59;98284.09;2085778;28;19983;-51
2023/05/22 03:38:46;;;;;;;;;;;;;;;18.86;67.68;98290.53;2083923;28;19928;-48
2023/05/22 03:39:47;;;;;;;;;;;;;;;18.86;67.74;98279.78;2079783;28;19928;-49
2023/05/22 03:40:48;;;;;;;;;;;;;;;18.87;67.91;98291.34;2086920;28;19929;-49
2023/05/22 03:41:49;;;;;;;;;;;;;;;18.85;67.73;98282.66;2083210;28;20539;-49
2023/05/22 03:42:51;;;;;;;;;;;;;;;18.84;68.05;98289.91;2087304;28;20052;-51
2023/05/22 03:43:51;;;;;;;;;;;;;;;18.86;67.75;98279.78;2084007;28;20411;-48
2023/05/22 03:44:52;;;;;;;;;;;;;;;18.85;67.90;98279.97;2086691;28;19924;-51
2023/05/22 03:45:53;;;;;;;;;;;;;;;18.84;67.85;98284.53;2086942;28;20399;-49
2023/05/22 03:46:54;;;;;;;;;;;;;;;18.85;67.73;98283.47;2082188;28;19993;-49
2023/05/22 03:47:55;;;;;;;;;;;;;;;18.85;68.05;98288.03;2083818;28;19958;-49
2023/05/22 03:48:56;;;;;;;;;;;;;;;18.85;67.58;98285.34;2083924;28;20372;-49
2023/05/22 03:49:58;;;;;;;;;;;;;;;18.87;67.92;98288.66;2082645;28;20004;-52
2023/05/22 03:50:59;;;;;;;;;;;;;;;18.86;67.63;98292.34;2087101;28;20704;-49
2023/05/22 03:52:00;;;;;;;;;;;;;;;18.84;67.67;98291.78;2083586;28;19963;-51
2023/05/22 03:53:02;;;;;;;;;;;;;;;18.87;67.84;98292.16;2086632;28;19939;-48
2023/05/22 03:54:02;;;;;;;;;;;;;;;18.84;67.81;98289.91;2086769;28;19993;-48
2023/05/22 03:55:04;;;;;;;;;;;;;;;18.84;67.69;98291.78;2085858;28;19928;-49
2023/05/22 03:56:05;;;;;;;;;;;;;;;18.84;67.72;98289.91;2084276;28;19920;-50
2023/05/22 03:57:06;;;;;;;;;;;;;;;18.85;68.06;98294.22;2086444;28;19974;-49
2023/05/22 03:58:07;;;;;;;;;;;;;;;18.85;67.57;98296.09;2085505;28;19994;-49
2023/05/22 03:59:08;;;;;;;;;;;;;;;18.86;67.56;98292.34;2085594;28;19924;-51
2023/05/22 04:00:10;;;;;;;;;;;;;;;18.84;67.61;98297.97;2085634;28;19924;-48
2023/05/22 04:01:12;;;;;;;;;;;;;;;18.84;67.71;98289.09;2086475;28;20741;-50
2023/05/22 04:02:15;;;;;;;;;;;;;;;18.86;67.81;98293.22;2088462;28;19939;-52
2023/05/22 04:03:18;;;;;;;;;;;;;;;18.85;67.90;98294.22;2084317;28;19970;-49
2023/05/22 04:04:18;;;;;;;;;;;;;;;18.83;68.00;98290.09;2088538;28;19993;-51
2023/05/22 04:05:21;;;;;;;;;;;;;;;18.84;67.76;98297.16;2084925;28;19982;-49
2023/05/22 04:06:22;;;;;;;;;;;;;;;18.84;67.81;98297.16;2084558;28;20064;-51
2023/05/22 04:07:23;;;;;;;;;;;;;;;18.82;67.87;98283.91;2085875;28;20403;-49
2023/05/22 04:08:24;;;;;;;;;;;;;;;18.83;67.82;98292.78;2086440;28;19962;-48
2023/05/22 04:09:26;;;;;;;;;;;;;;;18.83;67.69;98290.91;2084085;28;19925;-52
2023/05/22 04:10:27;;;;;;;;;;;;;;;18.82;67.71;98294.66;2083669;28;19990;-49
2023/05/22 04:11:29;;;;;;;;;;;;;;;18.82;67.80;98291.97;2086003;28;20530;-50
2023/05/22 04:12:29;;;;;;;;;;;;;;;18.83;68.04;98284.72;2085753;28;19941;-48
2023/05/22 04:13:31;;;;;;;;;;;;;;;18.81;68.08;98295.72;2086484;28;20054;-48
2023/05/22 04:14:32;;;;;;;;;;;;;;;18.82;67.90;98288.47;2086531;28;20427;-48
2023/05/22 04:15:34;;;;;;;;;;;;;;;18.82;67.69;98294.66;2086664;28;19986;-52
2023/05/22 04:16:34;;;;;;;;;;;;;;;18.82;67.79;98294.66;2087118;28;19921;-49
2023/05/22 04:17:39;;;;;;;;;;;;;;;18.82;67.80;98291.97;2087719;28;19924;-52
2023/05/22 04:18:40;;;;;;;;;;;;;;;18.83;67.82;98290.91;2085300;28;20205;-50
2023/05/22 04:19:41;;;;;;;;;;;;;;;18.83;67.63;98290.09;2084877;28;19937;-49
2023/05/22 04:20:43;;;;;;;;;;;;;;;18.81;67.68;98289.50;2085129;28;19973;-50
2023/05/22 04:21:44;;;;;;;;;;;;;;;18.80;67.93;98287.84;2085290;28;19946;-51
2023/05/22 04:22:45;;;;;;;;;;;;;;;18.80;67.76;98294.03;2086454;28;19928;-50
2023/05/22 04:23:46;;;;;;;;;;;;;;;18.82;67.71;98296.53;2087217;28;19929;-51
2023/05/22 04:24:47;;;;;;;;;;;;;;;18.81;67.74;98293.03;2086041;28;19963;-51
2023/05/22 04:25:49;;;;;;;;;;;;;;;18.82;67.50;98297.34;2084368;28;20335;-51
2023/05/22 04:26:49;;;;;;;;;;;;;;;18.82;67.58;98300.03;2086741;28;19921;-50
2023/05/22 04:27:51;;;;;;;;;;;;;;;18.81;67.71;98297.56;2086535;28;19943;-49
2023/05/22 04:28:51;;;;;;;;;;;;;;;18.81;67.84;98298.41;2086752;28;19980;-51
2023/05/22 04:29:53;;;;;;;;;;;;;;;18.81;67.93;98293.03;2083783;28;19932;-49
2023/05/22 04:30:54;;;;;;;;;;;;;;;18.80;67.87;98296.72;2087196;28;19927;-48
2023/05/22 04:31:55;;;;;;;;;;;;;;;18.80;67.84;98294.03;2086884;28;20378;-48
2023/05/22 04:32:56;;;;;;;;;;;;;;;18.81;67.99;98293.03;2087436;28;20487;-49
2023/05/22 04:33:58;;;;;;;;;;;;;;;18.83;67.73;98301.66;2087218;28;19928;-49
2023/05/22 04:34:59;;;;;;;;;;;;;;;18.80;67.78;98302.09;2084362;28;19924;-50
2023/05/22 04:36:02;;;;;;;;;;;;;;;18.78;67.51;98296.13;2086960;28;20035;-50
2023/05/22 04:37:02;;;;;;;;;;;;;;;18.79;67.81;98295.09;2086744;28;19981;-50
2023/05/22 04:38:05;;;;;;;;;;;;;;;18.78;67.92;98293.44;2084700;28;19928;-51
2023/05/22 04:39:05;;;;;;;;;;;;;;;18.80;68.04;98295.91;2085444;28;19924;-48
2023/05/22 04:40:08;;;;;;;;;;;;;;;18.80;67.67;98302.09;2086704;28;20828;-51
2023/05/22 04:41:09;;;;;;;;;;;;;;;18.78;67.68;98298.81;2087169;28;19924;-49
2023/05/22 04:42:13;;;;;;;;;;;;;;;18.78;67.86;98303.34;2085724;28;19978;-51
2023/05/22 04:43:13;;;;;;;;;;;;;;;18.78;67.86;98300.66;2085711;28;20408;-51
2023/05/22 04:44:15;;;;;;;;;;;;;;;18.78;67.89;98301.50;2085694;28;20023;-48
2023/05/22 04:45:18;;;;;;;;;;;;;;;18.80;67.84;98301.28;2087354;28;19924;-48
2023/05/22 04:46:19;;;;;;;;;;;;;;;18.80;67.79;98298.59;2086241;28;19934;-51
2023/05/22 04:47:21;;;;;;;;;;;;;;;18.79;67.77;98300.47;2087172;28;19924;-49
2023/05/22 04:48:22;;;;;;;;;;;;;;;18.78;67.91;98301.50;2089200;28;19920;-49
2023/05/22 04:49:23;;;;;;;;;;;;;;;18.79;67.81;98305.84;2085820;28;19921;-50
2023/05/22 04:50:25;;;;;;;;;;;;;;;18.80;67.74;98310.16;2087173;28;19924;-52
2023/05/22 04:51:26;;;;;;;;;;;;;;;18.81;67.48;98314.50;2087758;28;19932;-52
2023/05/22 04:52:28;;;;;;;;;;;;;;;18.82;67.35;98316.16;2082446;28;19925;-50
2023/05/22 04:53:29;;;;;;;;;;;;;;;18.80;67.55;98304.78;2085819;28;19924;-53
2023/05/22 04:54:30;;;;;;;;;;;;;;;18.79;67.63;98316.59;2084940;28;19998;-49
2023/05/22 04:55:32;;;;;;;;;;;;;;;18.79;67.53;98311.22;2085398;28;19929;-49
2023/05/22 04:56:34;;;;;;;;;;;;;;;18.80;67.51;98312.84;2083917;28;19928;-49
2023/05/22 04:57:35;;;;;;;;;;;;;;;18.79;67.76;98319.25;2088390;28;19997;-51
2023/05/22 04:58:37;;;;;;;;;;;;;;;18.77;67.78;98313.28;2084877;28;20217;-48
2023/05/22 04:59:38;;;;;;;;;;;;;;;18.78;67.80;98314.09;2088343;28;19924;-50
2023/05/22 05:00:39;;;;;;;;;;;;;;;18.76;67.57;98314.31;2087224;28;19955;-48
2023/05/22 05:01:43;;;;;;;;;;;;;;;18.78;67.78;98314.09;2089239;28;19939;-50
2023/05/22 05:02:45;;;;;;;;;;;;;;;18.78;67.94;98314.09;2084900;28;19920;-49
2023/05/22 05:03:45;;;;;;;;;;;;;;;18.76;67.63;98317.00;2087673;28;19928;-49
2023/05/22 05:04:47;;;;;;;;;;;;;;;18.77;67.78;98315.97;2084755;28;20013;-50
2023/05/22 05:05:47;;;;;;;;;;;;;;;18.78;67.75;98317.63;2085678;28;19998;-48
2023/05/22 05:06:52;;;;;;;;;;;;;;;18.78;67.57;98314.94;2085017;28;19928;-49
2023/05/22 05:07:53;;;;;;;;;;;;;;;18.78;67.94;98317.63;2086234;28;19978;-50
2023/05/22 05:08:54;;;;;;;;;;;;;;;18.77;67.83;98315.97;2085791;28;19990;-48
2023/05/22 05:09:55;;;;;;;;;;;;;;;18.77;67.57;98315.97;2084910;28;19928;-48
2023/05/22 05:10:56;;;;;;;;;;;;;;;18.76;67.94;98317.00;2086288;28;19978;-49
2023/05/22 05:11:57;;;;;;;;;;;;;;;18.77;67.55;98318.66;2084153;28;19925;-51
2023/05/22 05:12:58;;;;;;;;;;;;;;;18.77;67.50;98315.13;2085183;28;19950;-50
2023/05/22 05:13:59;;;;;;;;;;;;;;;18.81;67.27;98319.88;2085372;28;20365;-49
2023/05/22 05:15:00;;;;;;;;;;;;;;;18.78;67.68;98320.31;2085549;28;19925;-48
2023/05/22 05:16:01;;;;;;;;;;;;;;;18.77;67.83;98321.34;2088496;28;19972;-49
2023/05/22 05:17:03;;;;;;;;;;;;;;;18.79;67.65;98315.75;2088373;28;19928;-48
2023/05/22 05:18:04;;;;;;;;;;;;;;;18.79;67.33;98321.97;2088162;28;19925;-50
2023/05/22 05:19:05;;;;;;;;;;;;;;;18.75;67.55;98321.56;2087373;28;19924;-49
2023/05/22 05:20:07;;;;;;;;;;;;;;;18.78;67.54;98316.78;2086843;28;19921;-50
2023/05/22 05:21:07;;;;;;;;;;;;;;;18.75;67.68;98310.81;2085808;28;19929;-52
2023/05/22 05:22:10;;;;;;;;;;;;;;;18.76;67.54;98322.38;2088501;28;19973;-50
2023/05/22 05:23:11;;;;;;;;;;;;;;;18.78;67.43;98309.56;2087871;28;20378;-48